Time;durP1;ratioP1;P1;durP2;ratioP2;P2;SDS_P1;SDS_P2;PMS_P1;PMS_P2;Temp;Humidity;BMP_temperature;BMP_pressure;BME280_temperature;BME280_humidity;BME280_pressure;Samples;Min_cycle;Max_cycle;Signal;HPM_P1;HPM_P2
2021/01/31 00:02:14;;;;;;;1.17;1.17;;;2.80;99.90;;;;;;5092998;28;20222;-78
2021/01/31 00:04:46;;;;;;;0.50;0.50;;;2.70;99.90;;;;;;5092866;28;20621;-77
2021/01/31 00:07:12;;;;;;;0.50;0.50;;;2.70;99.90;;;;;;5097029;28;20739;-78
2021/01/31 00:09:37;;;;;;;0.40;0.40;;;2.70;99.90;;;;;;5097101;28;20288;-78
2021/01/31 00:12:03;;;;;;;0.20;0.20;;;2.60;99.90;;;;;;5078738;28;20189;-77
2021/01/31 00:14:29;;;;;;;1.40;1.05;;;2.60;99.90;;;;;;5096904;28;20163;-78
2021/01/31 00:16:54;;;;;;;0.88;0.88;;;2.60;99.90;;;;;;5096659;28;20251;-78
2021/01/31 00:19:20;;;;;;;0.73;0.73;;;2.70;99.90;;;;;;5096737;28;20163;-77
2021/01/31 00:21:45;;;;;;;0.20;0.20;;;2.70;99.90;;;;;;5096662;28;20641;-78
2021/01/31 00:24:11;;;;;;;0.70;0.70;;;2.60;99.90;;;;;;5078611;28;20174;-78
2021/01/31 00:26:37;;;;;;;1.60;1.43;;;2.60;99.90;;;;;;5078359;28;20281;-77
2021/01/31 00:29:03;;;;;;;2.93;0.60;;;2.60;99.90;;;;;;5096717;28;20303;-77
2021/01/31 00:31:29;;;;;;;0.60;0.60;;;2.60;99.90;;;;;;5096518;28;20186;-78
2021/01/31 00:33:55;;;;;;;0.90;0.77;;;2.60;99.90;;;;;;5096585;28;20192;-78
2021/01/31 00:36:20;;;;;;;0.77;0.77;;;2.60;99.90;;;;;;5096464;28;20403;-77
2021/01/31 00:38:46;;;;;;;0.60;0.60;;;2.60;99.90;;;;;;5078067;28;20165;-77
2021/01/31 00:41:11;;;;;;;0.40;0.40;;;2.60;99.90;;;;;;5096289;28;20214;-77
2021/01/31 00:43:37;;;;;;;6.43;1.17;;;2.60;99.90;;;;;;5096309;28;20166;-78
2021/01/31 00:46:02;;;;;;;0.30;0.30;;;2.70;99.90;;;;;;5078045;28;20185;-78
2021/01/31 00:48:28;;;;;;;0.93;0.90;;;2.80;99.90;;;;;;5078097;28;20613;-78
2021/01/31 00:50:54;;;;;;;0.50;0.50;;;2.70;99.90;;;;;;5096063;28;20193;-78
2021/01/31 00:53:19;;;;;;;0.50;0.50;;;2.60;99.90;;;;;;5096503;28;20510;-77
2021/01/31 00:55:45;;;;;;;0.40;0.40;;;2.60;99.90;;;;;;5077802;28;20189;-78
2021/01/31 00:58:10;;;;;;;0.47;0.47;;;2.50;99.90;;;;;;5096147;28;20249;-77
2021/01/31 01:00:39;;;;;;;0.90;0.90;;;2.50;99.90;;;;;;5096046;28;20162;-77
2021/01/31 01:03:05;;;;;;;5.40;2.42;;;2.40;99.90;;;;;;5077784;28;20166;-78
2021/01/31 01:05:32;;;;;;;0.60;0.60;;;2.30;99.90;;;;;;5095841;28;20288;-77
2021/01/31 01:07:58;;;;;;;0.43;0.43;;;2.20;99.90;;;;;;5095750;28;20165;-78
2021/01/31 01:10:28;;;;;;;0.70;0.70;;;2.20;99.90;;;;;;5096144;28;20206;-77
2021/01/31 01:12:53;;;;;;;0.50;0.50;;;2.30;99.90;;;;;;5095659;28;20247;-76
2021/01/31 01:15:22;;;;;;;1.73;1.63;;;2.30;99.90;;;;;;5077418;28;20644;-77
2021/01/31 01:17:47;;;;;;;0.40;0.40;;;2.30;99.90;;;;;;5076826;28;20219;-77
2021/01/31 01:20:14;;;;;;;1.00;0.90;;;2.30;99.90;;;;;;5095512;28;20166;-78
2021/01/31 01:22:40;;;;;;;0.63;0.63;;;2.20;99.90;;;;;;5077720;28;20590;-78
2021/01/31 01:25:07;;;;;;;0.87;0.87;;;2.30;99.90;;;;;;5095493;28;20265;-78
2021/01/31 01:27:33;;;;;;;1.90;1.27;;;2.30;99.90;;;;;;5077250;28;20633;-78
2021/01/31 01:30:00;;;;;;;1.17;1.07;;;2.20;99.90;;;;;;5095377;28;20198;-78
2021/01/31 01:32:26;;;;;;;3.27;1.37;;;2.20;99.90;;;;;;5095425;28;20237;-78
2021/01/31 01:34:51;;;;;;;10.00;3.53;;;2.10;99.90;;;;;;5077166;28;20177;-77
2021/01/31 01:37:18;;;;;;;2.80;1.35;;;2.00;99.90;;;;;;5077131;28;20154;-76
2021/01/31 01:39:44;;;;;;;0.97;0.97;;;2.00;99.90;;;;;;5077410;28;20509;-77
2021/01/31 01:42:11;;;;;;;0.73;0.73;;;2.10;99.90;;;;;;5077135;28;20197;-78
2021/01/31 01:44:37;;;;;;;0.40;0.40;;;2.00;99.90;;;;;;5095147;28;20146;-78
2021/01/31 01:47:06;;;;;;;0.73;0.40;;;2.00;99.90;;;;;;5095119;28;20192;-77
2021/01/31 01:49:40;;;;;;;2.00;1.90;;;2.00;99.90;;;;;;5095008;28;20633;-76
2021/01/31 01:52:22;;;;;;;0.50;0.50;;;2.00;99.90;;;;;;5076795;28;20173;-77
2021/01/31 01:55:02;;;;;;;0.57;0.57;;;1.90;99.90;;;;;;5094922;28;20146;-77
2021/01/31 01:57:33;;;;;;;0.43;0.43;;;1.90;99.90;;;;;;5094989;28;20614;-77
2021/01/31 01:59:59;;;;;;;1.30;1.27;;;1.80;99.90;;;;;;5094057;28;20169;-78
2021/01/31 02:02:32;;;;;;;0.53;0.53;;;1.70;99.90;;;;;;5094520;28;20245;-76
2021/01/31 02:05:03;;;;;;;0.40;0.40;;;1.70;99.90;;;;;;5094343;28;20688;-76
2021/01/31 02:07:29;;;;;;;1.53;1.43;;;1.70;99.90;;;;;;5094704;28;20639;-76
2021/01/31 02:09:55;;;;;;;0.63;0.63;;;1.80;99.90;;;;;;5094439;28;20193;-76
2021/01/31 02:12:25;;;;;;;0.50;0.50;;;1.70;99.90;;;;;;5094518;28;20178;-77
2021/01/31 02:14:53;;;;;;;2.07;1.57;;;1.60;99.90;;;;;;5094306;28;20166;-77
2021/01/31 02:17:40;;;;;;;0.80;0.80;;;1.60;99.90;;;;;;5094354;28;20173;-76
2021/01/31 02:20:40;;;;;;;0.30;0.30;;;1.70;99.90;;;;;;5094397;28;20629;-77
2021/01/31 02:23:27;;;;;;;0.67;0.67;;;1.70;99.90;;;;;;5094363;28;20174;-78
2021/01/31 02:26:04;;;;;;;0.27;0.27;;;1.60;99.90;;;;;;5094252;28;20182;-77
2021/01/31 02:28:41;;;;;;;0.63;0.63;;;1.50;99.90;;;;;;5093469;28;20162;-78
2021/01/31 02:31:25;;;;;;;0.60;0.60;;;1.40;99.90;;;;;;5076042;28;20597;-77
2021/01/31 02:34:12;;;;;;;0.40;0.40;;;1.40;99.90;;;;;;5076100;28;20182;-77
2021/01/31 02:37:05;;;;;;;0.87;0.87;;;1.50;99.90;;;;;;5075854;28;20181;-78
2021/01/31 02:39:36;;;;;;;0.37;0.37;;;1.40;99.90;;;;;;5075908;28;20586;-77
2021/01/31 02:42:20;;;;;;;0.70;0.70;;;1.30;99.90;;;;;;5094101;28;20315;-77
2021/01/31 02:44:59;;;;;;;0.87;0.50;;;1.30;99.90;;;;;;5075686;28;20169;-77
2021/01/31 02:47:28;;;;;;;0.93;0.93;;;1.30;99.90;;;;;;5094104;28;20210;-76
2021/01/31 02:50:12;;;;;;;4.93;0.93;;;1.40;99.90;;;;;;5093756;28;20200;-77
2021/01/31 02:52:44;;;;;;;0.73;0.73;;;1.50;99.90;;;;;;5093954;28;20644;-77
2021/01/31 02:55:16;;;;;;;2.33;1.30;;;1.40;99.90;;;;;;5075604;28;20261;-78
2021/01/31 02:57:49;;;;;;;9.33;3.67;;;1.40;99.90;;;;;;5093829;28;20169;-77
2021/01/31 03:00:30;;;;;;;2.97;1.20;;;1.30;99.90;;;;;;5093817;28;20164;-76
2021/01/31 03:03:09;;;;;;;0.30;0.30;;;1.30;99.90;;;;;;5093440;28;20676;-77
2021/01/31 03:05:45;;;;;;;0.43;0.43;;;1.20;99.90;;;;;;5093591;28;20185;-77
2021/01/31 03:08:21;;;;;;;0.93;0.93;;;1.30;99.90;;;;;;5075393;28;20166;-78
2021/01/31 03:10:49;;;;;;;0.37;0.37;;;1.30;99.90;;;;;;5093964;28;20189;-77
2021/01/31 03:13:29;;;;;;;0.77;0.77;;;1.40;99.90;;;;;;5075294;28;20178;-77
2021/01/31 03:16:02;;;;;;;0.77;0.73;;;1.30;99.90;;;;;;5093372;28;20260;-77
2021/01/31 03:18:39;;;;;;;0.30;0.30;;;1.30;99.90;;;;;;5093428;28;20165;-76
2021/01/31 03:21:15;;;;;;;2.23;0.90;;;1.10;99.90;;;;;;5093423;28;20162;-76
2021/01/31 03:23:47;;;;;;;1.83;1.37;;;1.10;99.90;;;;;;5093442;28;20230;-77
2021/01/31 03:26:19;;;;;;;0.50;0.50;;;1.10;99.90;;;;;;5093262;28;20186;-76
2021/01/31 03:28:45;;;;;;;0.47;0.47;;;1.20;99.90;;;;;;5093293;28;20170;-77
2021/01/31 03:31:15;;;;;;;0.30;0.30;;;1.20;99.90;;;;;;5093373;28;20234;-76
2021/01/31 03:33:55;;;;;;;0.83;0.83;;;1.20;99.90;;;;;;5093369;28;20162;-76
2021/01/31 03:36:25;;;;;;;0.40;0.40;;;1.00;99.90;;;;;;5075030;28;20189;-77
2021/01/31 03:38:53;;;;;;;0.30;0.30;;;1.00;99.90;;;;;;5091957;28;20169;-77
2021/01/31 03:41:22;;;;;;;1.77;1.17;;;1.00;99.90;;;;;;5074643;28;20217;-76
2021/01/31 03:43:48;;;;;;;0.70;0.70;;;1.10;99.90;;;;;;5075108;28;20162;-76
2021/01/31 03:46:34;;;;;;;0.43;0.43;;;1.20;99.90;;;;;;5093079;28;20193;-76
2021/01/31 03:49:06;;;;;;;1.63;1.53;;;1.20;99.90;;;;;;5093135;28;20158;-76
2021/01/31 03:51:33;;;;;;;3.73;0.90;;;1.30;99.90;;;;;;5092996;28;20209;-76
2021/01/31 03:53:59;;;;;;;1.70;1.60;;;1.20;99.90;;;;;;5093109;28;20166;-76
2021/01/31 03:56:38;;;;;;;0.57;0.57;;;1.10;99.90;;;;;;5092954;28;20194;-77
2021/01/31 03:59:05;;;;;;;0.60;0.60;;;1.20;99.90;;;;;;5074943;28;20834;-76
2021/01/31 04:01:36;;;;;;;0.80;0.80;;;1.10;99.90;;;;;;5074894;28;20574;-76
2021/01/31 04:04:38;;;;;;;0.37;0.37;;;1.00;99.90;;;;;;5074807;28;20231;-76
2021/01/31 04:07:07;;;;;;;0.50;0.50;;;0.90;99.90;;;;;;5092846;28;20213;-77
2021/01/31 04:09:34;;;;;;;0.53;0.53;;;0.90;99.90;;;;;;5074787;28;20174;-77
2021/01/31 04:12:09;;;;;;;0.50;0.50;;;1.10;99.90;;;;;;5092834;28;20262;-77
2021/01/31 04:14:49;;;;;;;0.53;0.53;;;1.00;99.90;;;;;;5093217;28;20277;-77
2021/01/31 04:17:15;;;;;;;1.43;1.40;;;0.90;99.90;;;;;;5092837;28;20162;-77
2021/01/31 04:19:41;;;;;;;1.17;1.13;;;0.80;99.90;;;;;;5092846;28;20218;-76
2021/01/31 04:22:06;;;;;;;3.03;1.17;;;0.70;99.90;;;;;;5092761;28;20249;-77
2021/01/31 04:24:32;;;;;;;0.80;0.80;;;0.70;99.90;;;;;;5092862;28;20158;-77
2021/01/31 04:26:57;;;;;;;1.23;1.07;;;0.80;99.90;;;;;;5092582;28;20196;-75
2021/01/31 04:29:23;;;;;;;0.80;0.80;;;0.80;99.90;;;;;;5092665;28;20161;-78
2021/01/31 04:31:48;;;;;;;0.97;0.97;;;0.70;99.90;;;;;;5074517;28;20170;-77
2021/01/31 04:34:14;;;;;;;0.40;0.40;;;0.80;99.90;;;;;;5092708;28;20184;-77
2021/01/31 04:36:40;;;;;;;0.80;0.80;;;0.90;99.90;;;;;;5074596;28;20181;-77
2021/01/31 04:39:06;;;;;;;2.00;1.90;;;0.90;99.90;;;;;;5092625;28;20251;-77
2021/01/31 04:41:38;;;;;;;1.00;1.00;;;0.90;99.90;;;;;;5092433;28;20225;-77
2021/01/31 04:44:11;;;;;;;0.30;0.30;;;0.90;99.90;;;;;;5092746;28;20158;-76
2021/01/31 04:46:52;;;;;;;0.30;0.30;;;1.00;99.90;;;;;;5092497;28;20177;-78
2021/01/31 04:49:37;;;;;;;1.83;1.70;;;1.00;99.90;;;;;;5074376;28;20169;-76
2021/01/31 04:52:41;;;;;;;1.87;1.80;;;1.00;99.90;;;;;;5093167;28;20266;-77
2021/01/31 04:55:31;;;;;;;0.30;0.30;;;0.90;99.90;;;;;;5033715;28;20242;-77
2021/01/31 04:58:13;;;;;;;0.20;0.20;;;0.70;99.90;;;;;;5096030;28;20154;-77
2021/01/31 05:00:50;;;;;;;0.50;0.50;;;0.70;99.90;;;;;;5096106;28;20181;-77
2021/01/31 05:03:17;;;;;;;0.87;0.67;;;0.70;99.90;;;;;;5095992;28;20169;-77
2021/01/31 05:06:02;;;;;;;0.40;0.40;;;0.80;99.90;;;;;;5095860;28;20181;-77
2021/01/31 05:08:30;;;;;;;0.47;0.47;;;0.80;99.90;;;;;;5077814;28;20180;-76
2021/01/31 05:11:00;;;;;;;1.30;1.23;;;0.80;99.90;;;;;;5077796;28;20671;-78
2021/01/31 05:13:48;;;;;;;0.90;0.90;;;0.80;99.90;;;;;;5095859;28;20182;-78
2021/01/31 05:16:15;;;;;;;0.73;0.73;;;0.80;99.90;;;;;;5077539;28;20284;-78
2021/01/31 05:18:48;;;;;;;0.47;0.47;;;0.70;99.90;;;;;;5095825;28;20165;-78
2021/01/31 05:21:19;;;;;;;0.80;0.80;;;0.60;99.90;;;;;;5077574;28;20178;-77
2021/01/31 05:23:52;;;;;;;1.67;1.57;;;0.60;99.90;;;;;;5095584;28;20707;-78
2021/01/31 05:26:19;;;;;;;0.50;0.50;;;0.60;99.90;;;;;;5095459;28;20190;-78
2021/01/31 05:28:51;;;;;;;0.40;0.40;;;0.70;99.90;;;;;;5095443;28;20524;-77
2021/01/31 05:31:19;;;;;;;0.80;0.80;;;0.80;99.90;;;;;;5095644;28;20202;-78
2021/01/31 05:33:51;;;;;;;2.00;1.73;;;0.70;99.90;;;;;;5095444;28;20666;-77
2021/01/31 05:36:18;;;;;;;0.63;0.63;;;0.70;99.90;;;;;;5095242;28;20185;-78
2021/01/31 05:38:47;;;;;;;0.40;0.40;;;0.80;99.90;;;;;;5095214;28;20266;-78
2021/01/31 05:41:28;;;;;;;2.03;1.60;;;0.70;99.90;;;;;;5095174;28;20271;-77
2021/01/31 05:43:57;;;;;;;0.80;0.80;;;0.90;99.90;;;;;;5095306;28;20636;-77
2021/01/31 05:46:39;;;;;;;0.47;0.47;;;0.80;99.90;;;;;;5095252;28;20204;-78
2021/01/31 05:49:08;;;;;;;1.37;1.37;;;0.80;99.90;;;;;;5095248;28;20248;-77
2021/01/31 05:51:34;;;;;;;0.63;0.63;;;0.60;99.90;;;;;;5094942;28;20261;-77
2021/01/31 05:54:27;;;;;;;0.30;0.30;;;0.60;99.90;;;;;;5076895;28;20169;-78
2021/01/31 05:56:53;;;;;;;0.87;0.87;;;0.60;99.90;;;;;;5076612;28;20217;-77
2021/01/31 05:59:20;;;;;;;0.50;0.50;;;0.60;99.90;;;;;;5094929;28;20636;-77
2021/01/31 06:02:03;;;;;;;0.50;0.50;;;0.40;99.90;;;;;;5094783;28;20610;-78
2021/01/31 06:04:28;;;;;;;0.30;0.30;;;0.50;99.90;;;;;;5076484;28;20174;-78
2021/01/31 06:07:07;;;;;;;0.40;0.40;;;0.50;99.90;;;;;;5094681;28;20219;-77
2021/01/31 06:09:46;;;;;;;0.27;0.27;;;0.60;99.90;;;;;;5094796;28;20170;-77
2021/01/31 06:12:24;;;;;;;0.43;0.43;;;0.60;99.90;;;;;;5094761;28;20181;-77
2021/01/31 06:15:06;;;;;;;0.50;0.50;;;0.50;99.90;;;;;;5059647;28;20161;-77
2021/01/31 06:17:33;;;;;;;0.80;0.80;;;0.50;99.90;;;;;;5094478;28;20227;-77
2021/01/31 06:20:24;;;;;;;0.93;0.93;;;0.50;99.90;;;;;;5094509;28;20181;-78
2021/01/31 06:22:50;;;;;;;3.33;1.43;;;0.60;99.90;;;;;;5094500;28;20240;-77
2021/01/31 06:25:34;;;;;;;7.40;2.83;;;0.50;99.90;;;;;;5094217;28;20185;-78
2021/01/31 06:28:23;;;;;;;2.20;1.17;;;0.30;99.90;;;;;;5076522;28;20246;-76
2021/01/31 06:30:55;;;;;;;1.20;0.80;;;0.30;99.90;;;;;;5094363;28;20221;-76
2021/01/31 06:33:21;;;;;;;0.73;0.73;;;0.30;99.90;;;;;;5076036;28;20168;-78
2021/01/31 06:35:53;;;;;;;3.30;3.10;;;0.30;99.90;;;;;;5094058;28;20265;-77
2021/01/31 06:38:48;;;;;;;0.50;0.50;;;0.40;99.90;;;;;;5075986;28;20173;-77
2021/01/31 06:41:57;;;;;;;0.30;0.30;;;0.40;99.90;;;;;;5093990;28;20251;-76
2021/01/31 06:45:15;;;;;;;0.57;0.57;;;0.60;99.90;;;;;;5085692;28;20182;-77
2021/01/31 06:47:56;;;;;;;2.43;1.43;;;0.70;99.90;;;;;;5048369;28;20178;-77
2021/01/31 06:50:38;;;;;;;0.50;0.50;;;0.60;99.90;;;;;;5093837;28;20197;-77
2021/01/31 06:53:34;;;;;;;0.40;0.40;;;0.60;99.90;;;;;;5094012;28;20154;-76
2021/01/31 06:56:19;;;;;;;0.53;0.53;;;0.40;99.90;;;;;;5092410;28;20213;-77
2021/01/31 06:59:15;;;;;;;0.20;0.20;;;0.50;99.90;;;;;;5093707;28;20158;-77
2021/01/31 07:01:56;;;;;;;0.87;0.87;;;0.50;99.90;;;;;;5093631;28;20184;-76
2021/01/31 07:04:54;;;;;;;0.40;0.40;;;0.40;99.90;;;;;;5093738;28;20677;-76
2021/01/31 07:07:54;;;;;;;0.87;0.87;;;0.40;99.90;;;;;;5042411;28;20520;-76
2021/01/31 07:10:34;;;;;;;1.80;1.70;;;0.30;99.90;;;;;;5062294;28;20649;-77
2021/01/31 07:13:18;;;;;;;2.40;2.30;;;0.30;99.90;;;;;;5075616;28;20182;-78
2021/01/31 07:16:12;;;;;;;0.40;0.40;;;0.30;99.90;;;;;;5092581;28;20225;-77
2021/01/31 07:18:46;;;;;;;1.07;1.03;;;0.40;99.90;;;;;;5075204;28;20198;-76
2021/01/31 07:21:20;;;;;;;0.80;0.80;;;0.50;99.90;;;;;;5093318;28;20203;-77
2021/01/31 07:23:48;;;;;;;1.27;1.17;;;0.60;99.90;;;;;;5075226;28;20173;-76
2021/01/31 07:26:32;;;;;;;1.63;1.20;;;0.40;99.90;;;;;;5093111;28;20181;-76
2021/01/31 07:29:01;;;;;;;0.43;0.43;;;0.40;99.90;;;;;;5093255;28;20191;-76
2021/01/31 07:31:45;;;;;;;1.50;1.07;;;0.40;99.90;;;;;;5093096;28;20193;-77
2021/01/31 07:34:50;;;;;;;2.90;0.90;;;0.40;99.90;;;;;;5075283;28;20512;-76
2021/01/31 07:37:18;;;;;;;0.87;0.87;;;0.50;99.90;;;;;;5052325;28;20185;-77
2021/01/31 07:39:57;;;;;;;0.47;0.47;;;0.60;99.90;;;;;;5093067;28;20169;-76
2021/01/31 07:42:24;;;;;;;2.20;2.10;;;0.70;99.90;;;;;;5093155;28;20196;-76
2021/01/31 07:44:56;;;;;;;0.43;0.43;;;0.60;99.90;;;;;;5092929;28;20154;-76
2021/01/31 07:47:23;;;;;;;1.07;1.07;;;0.50;99.90;;;;;;5093268;28;20180;-77
2021/01/31 07:49:57;;;;;;;1.37;1.27;;;0.70;99.90;;;;;;5092882;28;20162;-78
2021/01/31 07:52:25;;;;;;;0.87;0.87;;;0.60;99.90;;;;;;5074887;28;20200;-76
2021/01/31 07:55:16;;;;;;;0.60;0.60;;;0.60;99.90;;;;;;5093050;28;20146;-76
2021/01/31 07:57:42;;;;;;;0.30;0.30;;;0.60;99.90;;;;;;5093009;28;20201;-76
2021/01/31 08:00:18;;;;;;;1.13;1.13;;;0.60;99.90;;;;;;5092893;28;20166;-76
2021/01/31 08:02:48;;;;;;;0.50;0.50;;;0.60;99.90;;;;;;5074741;28;20205;-77
2021/01/31 08:05:53;;;;;;;0.87;0.87;;;0.60;99.90;;;;;;5074752;28;20197;-78
2021/01/31 08:08:45;;;;;;;2.40;2.03;;;0.60;99.90;;;;;;5092856;28;20201;-77
2021/01/31 08:11:20;;;;;;;0.97;0.77;;;0.70;99.90;;;;;;5092979;28;20212;-78
2021/01/31 08:13:51;;;;;;;0.83;0.83;;;0.80;99.90;;;;;;5092818;28;20169;-77
2021/01/31 08:16:48;;;;;;;1.47;1.40;;;0.80;99.90;;;;;;5092463;28;20189;-78
2021/01/31 08:19:16;;;;;;;1.70;1.50;;;0.80;99.90;;;;;;5092669;28;20245;-76
2021/01/31 08:22:12;;;;;;;1.30;1.30;;;0.80;99.90;;;;;;5092775;28;20166;-76
2021/01/31 08:24:57;;;;;;;1.53;1.23;;;0.60;99.90;;;;;;5074654;28;20170;-76
2021/01/31 08:27:37;;;;;;;1.20;1.17;;;0.80;99.90;;;;;;5095546;28;20202;-78
2021/01/31 08:30:29;;;;;;;2.37;1.30;;;0.80;99.90;;;;;;5096449;28;20189;-77
2021/01/31 08:32:58;;;;;;;1.43;0.73;;;0.70;99.90;;;;;;5064163;28;20175;-77
2021/01/31 08:35:31;;;;;;;0.73;0.73;;;0.80;99.90;;;;;;5060728;28;20190;-76
2021/01/31 08:38:15;;;;;;;3.60;1.00;;;0.70;99.90;;;;;;5056076;28;20159;-76
2021/01/31 08:41:03;;;;;;;0.60;0.60;;;0.70;99.90;;;;;;5038065;28;20215;-77
2021/01/31 08:43:42;;;;;;;0.40;0.40;;;0.70;99.90;;;;;;5037691;28;20171;-77
2021/01/31 08:46:11;;;;;;;1.13;1.00;;;0.80;99.90;;;;;;5055699;28;20198;-77
2021/01/31 08:48:37;;;;;;;0.97;0.97;;;0.60;99.90;;;;;;5037840;28;20175;-77
2021/01/31 08:51:12;;;;;;;0.40;0.40;;;0.60;99.90;;;;;;5055606;28;20210;-77
2021/01/31 08:53:37;;;;;;;1.40;1.40;;;0.60;99.90;;;;;;5055846;28;20166;-77
2021/01/31 08:56:15;;;;;;;7.30;1.03;;;0.70;99.90;;;;;;5054612;28;20194;-77
2021/01/31 08:58:41;;;;;;;0.97;0.97;;;0.80;99.90;;;;;;5037430;28;20521;-77
2021/01/31 09:01:07;;;;;;;0.60;0.60;;;0.80;99.90;;;;;;5055763;28;20490;-76
2021/01/31 09:03:34;;;;;;;1.27;1.17;;;0.70;99.90;;;;;;5056231;28;20644;-77
2021/01/31 09:06:00;;;;;;;1.47;1.37;;;0.60;99.90;;;;;;5055370;28;20187;-77
2021/01/31 09:08:27;;;;;;;1.03;1.03;;;0.60;99.90;;;;;;5055641;28;21241;-78
2021/01/31 09:10:54;;;;;;;0.67;0.67;;;0.70;99.90;;;;;;5057873;28;20203;-77
2021/01/31 09:13:30;;;;;;;0.37;0.37;;;0.90;99.90;;;;;;5095127;28;20323;-77
2021/01/31 09:16:17;;;;;;;0.70;0.70;;;0.90;99.90;;;;;;5082765;28;20201;-76
2021/01/31 09:18:43;;;;;;;2.00;1.73;;;0.80;99.90;;;;;;5075105;28;20159;-77
2021/01/31 09:21:24;;;;;;;0.80;0.77;;;1.00;99.90;;;;;;5074692;28;20729;-77
2021/01/31 09:23:53;;;;;;;0.97;0.97;;;1.20;99.90;;;;;;5075209;28;20280;-76
2021/01/31 09:26:19;;;;;;;0.63;0.63;;;1.30;99.90;;;;;;5074978;28;20189;-77
2021/01/31 09:28:45;;;;;;;1.93;1.40;;;1.40;99.90;;;;;;5074961;28;20159;-77
2021/01/31 09:31:14;;;;;;;1.07;1.07;;;1.50;99.90;;;;;;5074034;28;20200;-76
2021/01/31 09:33:42;;;;;;;1.90;1.53;;;1.60;99.90;;;;;;5074941;28;20173;-77
2021/01/31 09:36:15;;;;;;;1.07;0.70;;;1.60;99.90;;;;;;5074796;28;20186;-76
2021/01/31 09:38:42;;;;;;;16.63;3.20;;;1.50;99.90;;;;;;5074108;28;20166;-76
2021/01/31 09:41:09;;;;;;;0.50;0.50;;;1.50;99.90;;;;;;5056048;28;20651;-76
2021/01/31 09:43:35;;;;;;;0.50;0.50;;;1.60;99.90;;;;;;5074671;28;20169;-76
2021/01/31 09:46:03;;;;;;;0.87;0.87;;;1.60;99.90;;;;;;5068554;28;20195;-77
2021/01/31 09:48:31;;;;;;;1.50;0.97;;;1.30;99.90;;;;;;5068189;28;20181;-77
2021/01/31 09:51:03;;;;;;;0.60;0.60;;;1.30;99.90;;;;;;5071741;28;20598;-76
2021/01/31 09:53:41;;;;;;;0.97;0.97;;;1.40;99.90;;;;;;5057577;28;20194;-77
2021/01/31 09:56:10;;;;;;;1.40;1.40;;;1.70;99.90;;;;;;5035001;28;20627;-77
2021/01/31 09:58:45;;;;;;;0.93;0.93;;;1.90;99.90;;;;;;5054661;28;20175;-76
2021/01/31 10:01:15;;;;;;;1.07;1.07;;;1.90;99.90;;;;;;5053840;28;20162;-76
2021/01/31 10:03:41;;;;;;;1.87;1.77;;;1.80;99.90;;;;;;5055040;28;20660;-77
2021/01/31 10:06:14;;;;;;;0.50;0.50;;;1.70;99.90;;;;;;5072916;28;20191;-79
2021/01/31 10:08:48;;;;;;;2.27;1.07;;;1.70;99.90;;;;;;5073016;28;20170;-77
2021/01/31 10:11:24;;;;;;;1.73;1.63;;;1.70;99.90;;;;;;5077408;28;20335;-76
2021/01/31 10:13:49;;;;;;;0.50;0.50;;;1.80;99.90;;;;;;5093193;28;20150;-76
2021/01/31 10:16:22;;;;;;;1.10;1.10;;;1.90;99.90;;;;;;5092679;28;20989;-76
2021/01/31 10:18:48;;;;;;;1.67;1.50;;;2.10;99.90;;;;;;5092760;28;20168;-76
2021/01/31 10:21:20;;;;;;;3.20;2.87;;;2.00;99.90;;;;;;5052599;28;20499;-76
2021/01/31 10:23:47;;;;;;;2.77;1.33;;;2.00;99.90;;;;;;5072593;28;20249;-76
2021/01/31 10:26:18;;;;;;;0.73;0.73;;;2.00;99.90;;;;;;5072664;28;20547;-77
2021/01/31 10:28:53;;;;;;;0.50;0.50;;;2.30;99.90;;;;;;5072486;28;20186;-76
2021/01/31 10:31:24;;;;;;;0.70;0.70;;;2.10;99.90;;;;;;5071977;28;20740;-76
2021/01/31 10:33:51;;;;;;;0.60;0.60;;;2.10;99.90;;;;;;5055144;28;20159;-77
2021/01/31 10:36:38;;;;;;;1.07;1.07;;;2.20;99.90;;;;;;5072881;28;20217;-77
2021/01/31 10:39:10;;;;;;;0.53;0.53;;;2.20;99.90;;;;;;5054514;28;20209;-77
2021/01/31 10:41:45;;;;;;;3.07;0.90;;;2.20;99.90;;;;;;5053120;28;20291;-77
2021/01/31 10:44:20;;;;;;;0.63;0.63;;;2.30;99.90;;;;;;5073102;28;20584;-77
2021/01/31 10:46:46;;;;;;;1.30;0.68;;;2.50;99.90;;;;;;5054479;28;20244;-78
2021/01/31 10:49:12;;;;;;;1.85;1.38;;;2.60;99.90;;;;;;5071173;28;20286;-77
2021/01/31 10:51:41;;;;;;;4.47;1.55;;;2.40;99.90;;;;;;5077998;28;20206;-77
2021/01/31 10:54:07;;;;;;;1.13;1.13;;;2.50;99.90;;;;;;5092345;28;20257;-77
2021/01/31 10:56:32;;;;;;;0.50;0.40;;;2.60;99.90;;;;;;5092156;28;20276;-77
2021/01/31 10:58:58;;;;;;;1.30;1.27;;;2.80;99.90;;;;;;5092262;28;20525;-76
2021/01/31 11:01:23;;;;;;;0.47;0.47;;;2.80;99.90;;;;;;5091865;28;20581;-77
2021/01/31 11:03:50;;;;;;;1.48;1.45;;;2.80;99.90;;;;;;5092809;28;20165;-76
2021/01/31 11:06:16;;;;;;;0.95;0.85;;;2.70;99.90;;;;;;5092584;28;20190;-77
2021/01/31 11:08:42;;;;;;;0.63;0.63;;;2.70;99.90;;;;;;5092599;28;20509;-76
2021/01/31 11:11:08;;;;;;;1.15;0.80;;;2.70;99.90;;;;;;5092636;28;20212;-77
2021/01/31 11:13:34;;;;;;;1.38;1.00;;;2.80;99.90;;;;;;5093381;28;20174;-76
2021/01/31 11:16:00;;;;;;;0.50;0.50;;;2.90;99.90;;;;;;5093266;28;20224;-77
2021/01/31 11:18:25;;;;;;;2.30;2.15;;;3.10;99.90;;;;;;5093178;28;20243;-77
2021/01/31 11:20:51;;;;;;;0.93;0.93;;;3.10;99.90;;;;;;5093043;28;20177;-77
2021/01/31 11:23:17;;;;;;;1.63;0.88;;;3.20;99.90;;;;;;5092473;28;20182;-77
2021/01/31 11:25:44;;;;;;;1.17;1.07;;;3.30;99.90;;;;;;5074815;28;20247;-76
2021/01/31 11:28:11;;;;;;;6.38;1.15;;;3.10;99.90;;;;;;5074585;28;20598;-76
2021/01/31 11:30:37;;;;;;;1.98;1.88;;;3.10;99.90;;;;;;5074734;28;20574;-77
2021/01/31 11:33:03;;;;;;;2.95;1.88;;;3.10;99.90;;;;;;5074647;28;20205;-77
2021/01/31 11:35:29;;;;;;;0.73;0.73;;;3.10;99.90;;;;;;5092640;28;20217;-77
2021/01/31 11:37:55;;;;;;;1.35;1.33;;;3.30;99.90;;;;;;5092826;28;20605;-76
2021/01/31 11:40:23;;;;;;;2.53;1.00;;;3.20;99.90;;;;;;5092411;28;20214;-76
2021/01/31 11:42:49;;;;;;;0.82;0.82;;;3.30;99.90;;;;;;5092568;28;20184;-77
2021/01/31 11:45:15;;;;;;;1.65;1.20;;;3.30;99.90;;;;;;5092667;28;20270;-80
2021/01/31 11:47:41;;;;;;;1.13;0.88;;;3.40;99.90;;;;;;5092867;28;20193;-76
2021/01/31 11:50:09;;;;;;;1.00;1.00;;;3.40;99.90;;;;;;5058115;28;20586;-79
2021/01/31 11:52:34;;;;;;;3.20;2.47;;;3.20;99.90;;;;;;5073161;28;20212;-78
2021/01/31 11:55:00;;;;;;;1.65;1.13;;;3.10;99.90;;;;;;5074277;28;21044;-77
2021/01/31 11:57:26;;;;;;;0.95;0.95;;;3.30;99.90;;;;;;5074705;28;20169;-76
2021/01/31 11:59:52;;;;;;;1.33;1.30;;;3.60;99.90;;;;;;5092345;28;20637;-76
2021/01/31 12:02:17;;;;;;;0.63;0.63;;;3.50;99.90;;;;;;5095050;28;20169;-77
2021/01/31 12:04:43;;;;;;;0.85;0.85;;;3.80;99.90;;;;;;5078522;28;20311;-76
2021/01/31 12:07:09;;;;;;;4.53;2.05;;;3.80;99.90;;;;;;5096706;28;20750;-77
2021/01/31 12:09:36;;;;;;;0.60;0.52;;;3.90;99.90;;;;;;5096965;28;20215;-77
2021/01/31 12:12:02;;;;;;;0.95;0.95;;;3.80;99.90;;;;;;5096057;28;20205;-76
2021/01/31 12:14:28;;;;;;;0.40;0.40;;;3.40;99.90;;;;;;5096501;28;20154;-77
2021/01/31 12:16:54;;;;;;;1.35;1.35;;;3.50;99.90;;;;;;5078255;28;20547;-77
2021/01/31 12:19:21;;;;;;;0.93;0.93;;;3.70;99.90;;;;;;5096431;28;20188;-77
2021/01/31 12:21:47;;;;;;;0.40;0.40;;;3.60;99.90;;;;;;5095941;28;20170;-77
2021/01/31 12:24:12;;;;;;;0.60;0.60;;;3.70;99.90;;;;;;5096669;28;20209;-76
2021/01/31 12:26:38;;;;;;;1.33;1.33;;;3.70;99.90;;;;;;5078031;28;20185;-77
2021/01/31 12:29:04;;;;;;;1.58;0.93;;;3.70;99.90;;;;;;5096525;28;20521;-77
2021/01/31 12:31:30;;;;;;;1.05;1.05;;;3.70;99.90;;;;;;5095892;28;20613;-77
2021/01/31 12:33:55;;;;;;;0.40;0.40;;;3.90;99.90;;;;;;5096486;28;20242;-77
2021/01/31 12:36:21;;;;;;;1.65;0.95;;;4.00;99.90;;;;;;5096114;28;20672;-77
2021/01/31 12:38:47;;;;;;;4.30;1.80;;;3.90;99.90;;;;;;5077739;28;20574;-77
2021/01/31 12:41:12;;;;;;;0.77;0.77;;;4.00;99.90;;;;;;5077507;28;20247;-77
2021/01/31 12:43:38;;;;;;;1.20;1.20;;;3.90;99.90;;;;;;5096255;28;20166;-77
2021/01/31 12:46:04;;;;;;;1.48;1.45;;;3.90;99.90;;;;;;5096041;28;20189;-76
2021/01/31 12:48:30;;;;;;;0.73;0.73;;;3.80;99.90;;;;;;5095717;28;20166;-76
2021/01/31 12:50:55;;;;;;;0.52;0.52;;;3.60;99.90;;;;;;5095637;28;20193;-76
2021/01/31 12:53:21;;;;;;;0.30;0.30;;;3.50;99.90;;;;;;5095720;28;20170;-76
2021/01/31 12:55:46;;;;;;;2.53;1.58;;;3.60;99.90;;;;;;5095671;28;20204;-79
2021/01/31 12:58:12;;;;;;;1.08;1.05;;;3.70;99.90;;;;;;5096398;28;20169;-82
2021/01/31 13:00:38;;;;;;;6.85;3.10;;;3.60;99.90;;;;;;5095641;28;20195;-81
2021/01/31 13:03:04;;;;;;;2.20;1.83;;;3.70;99.90;;;;;;5095347;28;20188;-79
2021/01/31 13:05:32;;;;;;;0.88;0.88;;;3.80;99.90;;;;;;5095583;28;20188;-76
2021/01/31 13:08:02;;;;;;;0.40;0.40;;;3.80;99.90;;;;;;5095520;28;20154;-80
2021/01/31 13:10:29;;;;;;;1.98;1.88;;;3.80;99.90;;;;;;5077506;28;20251;-80
2021/01/31 13:12:55;;;;;;;1.55;1.45;;;4.00;99.90;;;;;;5076285;28;20182;-76
2021/01/31 13:15:20;;;;;;;1.65;1.00;;;4.20;99.90;;;;;;5095272;28;20525;-77
2021/01/31 13:17:46;;;;;;;1.77;1.67;;;4.20;99.90;;;;;;5095227;28;20157;-76
2021/01/31 13:20:12;;;;;;;1.17;1.17;;;4.20;99.90;;;;;;5095249;28;20173;-77
2021/01/31 13:22:38;;;;;;;0.63;0.63;;;4.30;99.90;;;;;;5095027;28;20257;-77
2021/01/31 13:25:06;;;;;;;1.25;1.25;;;4.10;99.90;;;;;;5095211;28;20272;-78